Time;durP1;ratioP1;P1;durP2;ratioP2;P2;SDS_P1;SDS_P2;PMS_P1;PMS_P2;Temp;Humidity;BMP_temperature;BMP_pressure;BME280_temperature;BME280_humidity;BME280_pressure;Samples;Min_cycle;Max_cycle;Signal;HPM_P1;HPM_P2
2023/08/06 00:01:12;;;;;;;1.45;0.73;;;;;;;;;;4998513;28;20113;-50
2023/08/06 00:03:37;;;;;;;2.90;0.93;;;;;;;;;;4980186;28;20059;-51
2023/08/06 00:06:05;;;;;;;1.15;0.80;;;;;;;;;;4994024;28;20026;-51
2023/08/06 00:08:30;;;;;;;1.60;0.98;;;;;;;;;;4996250;28;20043;-50
2023/08/06 00:10:56;;;;;;;1.20;1.00;;;;;;;;;;4998196;28;20037;-48
2023/08/06 00:13:21;;;;;;;1.67;1.00;;;;;;;;;;4971929;28;20035;-47
2023/08/06 00:15:46;;;;;;;0.90;0.80;;;;;;;;;;4982057;28;20054;-52
2023/08/06 00:18:12;;;;;;;1.33;1.23;;;;;;;;;;4996161;28;20612;-50
2023/08/06 00:20:43;;;;;;;0.98;0.70;;;;;;;;;;4996964;28;20029;-50
2023/08/06 00:23:09;;;;;;;0.83;0.80;;;;;;;;;;4990275;28;20047;-49
2023/08/06 00:25:34;;;;;;;0.82;0.70;;;;;;;;;;5001961;28;20057;-46
2023/08/06 00:28:00;;;;;;;1.65;1.10;;;;;;;;;;4992747;28;20091;-48
2023/08/06 00:30:25;;;;;;;1.73;1.00;;;;;;;;;;4996698;28;20030;-46
2023/08/06 00:32:51;;;;;;;1.17;0.90;;;;;;;;;;4998020;28;20078;-45
2023/08/06 00:35:16;;;;;;;1.85;0.88;;;;;;;;;;4996324;28;20035;-50
2023/08/06 00:37:42;;;;;;;1.58;0.95;;;;;;;;;;4996687;28;20070;-47
2023/08/06 00:40:08;;;;;;;0.75;0.70;;;;;;;;;;4999505;28;20026;-50
2023/08/06 00:42:34;;;;;;;4.13;0.75;;;;;;;;;;4995362;28;20034;-45
2023/08/06 00:45:00;;;;;;;1.77;0.82;;;;;;;;;;4988032;28;20073;-45
2023/08/06 00:47:26;;;;;;;0.80;0.73;;;;;;;;;;4997430;28;20042;-48
2023/08/06 00:49:52;;;;;;;1.15;0.90;;;;;;;;;;4997097;28;20030;-47
2023/08/06 00:52:17;;;;;;;2.70;0.90;;;;;;;;;;4998015;28;20022;-49
2023/08/06 00:54:43;;;;;;;2.75;0.93;;;;;;;;;;4998552;28;20105;-46
2023/08/06 00:57:09;;;;;;;1.20;0.80;;;;;;;;;;4992665;28;20543;-46
2023/08/06 00:59:35;;;;;;;1.60;0.80;;;;;;;;;;4988255;28;20035;-47
2023/08/06 01:02:00;;;;;;;1.05;0.88;;;;;;;;;;4984402;28;20088;-45
2023/08/06 01:04:26;;;;;;;0.88;0.88;;;;;;;;;;4983725;28;20053;-50
2023/08/06 01:07:03;;;;;;;1.55;0.90;;;;;;;;;;4996674;28;20035;-49
2023/08/06 01:09:53;;;;;;;1.40;1.20;;;;;;;;;;4997140;28;20046;-49
2023/08/06 01:12:37;;;;;;;1.15;0.90;;;;;;;;;;4994392;28;20034;-47
2023/08/06 01:15:11;;;;;;;1.75;1.05;;;;;;;;;;4987425;28;20054;-45
2023/08/06 01:17:37;;;;;;;0.98;0.98;;;;;;;;;;4989330;28;20042;-45
2023/08/06 01:20:03;;;;;;;0.85;0.85;;;;;;;;;;4998086;28;20026;-45
2023/08/06 01:22:29;;;;;;;0.95;0.85;;;;;;;;;;4995973;28;20042;-46
2023/08/06 01:24:54;;;;;;;0.85;0.70;;;;;;;;;;4996917;28;20030;-47
2023/08/06 01:27:49;;;;;;;1.08;1.02;;;;;;;;;;4995408;28;20056;-48
2023/08/06 01:30:30;;;;;;;2.35;1.00;;;;;;;;;;4983911;28;20038;-47
2023/08/06 01:33:01;;;;;;;1.08;1.00;;;;;;;;;;4992390;28;20516;-48
2023/08/06 01:35:28;;;;;;;1.75;1.17;;;;;;;;;;4978614;28;20050;-49
2023/08/06 01:37:56;;;;;;;2.22;0.95;;;;;;;;;;4994894;28;20045;-48
2023/08/06 01:40:21;;;;;;;2.50;1.10;;;;;;;;;;4995404;28;20053;-46
2023/08/06 01:42:47;;;;;;;0.88;0.88;;;;;;;;;;4995934;28;20046;-49
2023/08/06 01:45:12;;;;;;;1.95;1.10;;;;;;;;;;4993763;28;20485;-46
2023/08/06 01:47:38;;;;;;;1.13;0.88;;;;;;;;;;4960732;28;20039;-46
2023/08/06 01:50:04;;;;;;;1.17;1.10;;;;;;;;;;4992976;28;20033;-50
2023/08/06 01:52:29;;;;;;;0.90;0.90;;;;;;;;;;4996789;28;20041;-49
2023/08/06 01:54:55;;;;;;;1.02;0.90;;;;;;;;;;4997377;28;20034;-48
2023/08/06 01:57:21;;;;;;;0.80;0.80;;;;;;;;;;4990068;28;20034;-48
2023/08/06 01:59:46;;;;;;;1.23;0.93;;;;;;;;;;4988349;28;20440;-46
2023/08/06 02:02:12;;;;;;;1.08;0.90;;;;;;;;;;4994359;28;20037;-49
2023/08/06 02:04:37;;;;;;;1.60;1.08;;;;;;;;;;4996492;28;20137;-48
2023/08/06 02:07:03;;;;;;;2.92;1.05;;;;;;;;;;4992997;28;20469;-46
2023/08/06 02:09:28;;;;;;;1.08;0.98;;;;;;;;;;4993660;28;20092;-48
2023/08/06 02:11:54;;;;;;;1.25;1.05;;;;;;;;;;4994540;28;20026;-48
2023/08/06 02:14:19;;;;;;;2.65;1.00;;;;;;;;;;4977672;28;20049;-48
2023/08/06 02:16:45;;;;;;;2.35;1.20;;;;;;;;;;4990699;28;20022;-46
2023/08/06 02:19:10;;;;;;;3.13;1.25;;;;;;;;;;4996417;28;20042;-48
2023/08/06 02:21:35;;;;;;;3.53;1.30;;;;;;;;;;4993824;28;20078;-46
2023/08/06 02:24:01;;;;;;;2.58;1.10;;;;;;;;;;4995528;28;20050;-49
2023/08/06 02:26:26;;;;;;;1.58;1.20;;;;;;;;;;4995807;28;20108;-49
2023/08/06 02:28:52;;;;;;;4.40;1.30;;;;;;;;;;4991546;28;20047;-50
2023/08/06 02:31:17;;;;;;;1.98;1.10;;;;;;;;;;4987444;28;20400;-46
2023/08/06 02:33:42;;;;;;;2.50;1.10;;;;;;;;;;4988043;28;20485;-51
2023/08/06 02:36:08;;;;;;;2.00;1.05;;;;;;;;;;4993017;28;20054;-49
2023/08/06 02:38:34;;;;;;;1.50;0.95;;;;;;;;;;4996736;28;20050;-50
2023/08/06 02:41:03;;;;;;;3.58;1.15;;;;;;;;;;4979067;28;20027;-49
2023/08/06 02:43:28;;;;;;;1.40;1.20;;;;;;;;;;4992455;28;20043;-49
2023/08/06 02:45:57;;;;;;;2.90;0.90;;;;;;;;;;4987188;28;20370;-46
2023/08/06 02:48:23;;;;;;;2.30;1.10;;;;;;;;;;4988177;28;20042;-50
2023/08/06 02:50:48;;;;;;;3.53;1.35;;;;;;;;;;4996543;28;20023;-47
2023/08/06 02:53:13;;;;;;;1.67;1.20;;;;;;;;;;4995679;28;20041;-48
2023/08/06 02:55:46;;;;;;;1.25;0.93;;;;;;;;;;4992102;28;20447;-50
2023/08/06 02:58:11;;;;;;;1.35;0.98;;;;;;;;;;4987981;28;20054;-46
2023/08/06 03:00:37;;;;;;;1.38;1.08;;;;;;;;;;4996733;28;20026;-48
2023/08/06 03:03:02;;;;;;;1.05;0.93;;;;;;;;;;4992123;28;20781;-46
2023/08/06 03:05:28;;;;;;;1.10;0.80;;;;;;;;;;4989371;28;20481;-46
2023/08/06 03:07:53;;;;;;;1.13;1.02;;;;;;;;;;4975615;28;20043;-51
2023/08/06 03:10:19;;;;;;;1.60;0.90;;;;;;;;;;5005291;28;20069;-48
2023/08/06 03:12:45;;;;;;;1.10;1.00;;;;;;;;;;4987602;28;20043;-49
2023/08/06 03:15:10;;;;;;;1.35;0.80;;;;;;;;;;4991124;28;20060;-45
2023/08/06 03:17:36;;;;;;;1.10;1.00;;;;;;;;;;4993405;28;20070;-48
2023/08/06 03:20:01;;;;;;;1.02;0.90;;;;;;;;;;4992261;28;20038;-45
2023/08/06 03:22:27;;;;;;;1.55;0.98;;;;;;;;;;4986870;28;20038;-45
2023/08/06 03:24:52;;;;;;;1.48;0.95;;;;;;;;;;4989443;28;20026;-46
2023/08/06 03:27:17;;;;;;;0.90;0.90;;;;;;;;;;4997642;28;20026;-45
2023/08/06 03:29:43;;;;;;;2.05;1.08;;;;;;;;;;4987542;28;20023;-46
2023/08/06 03:32:08;;;;;;;2.42;0.73;;;;;;;;;;4988311;28;20026;-47
2023/08/06 03:34:34;;;;;;;1.55;1.00;;;;;;;;;;4998623;28;20022;-46
2023/08/06 03:36:59;;;;;;;1.48;0.88;;;;;;;;;;4997464;28;20520;-47
2023/08/06 03:39:24;;;;;;;0.60;0.60;;;;;;;;;;4998887;28;20042;-46
2023/08/06 03:41:50;;;;;;;0.95;0.80;;;;;;;;;;4998870;28;20038;-48
2023/08/06 03:44:15;;;;;;;2.67;0.75;;;;;;;;;;4992360;28;20047;-47
2023/08/06 03:46:40;;;;;;;1.05;0.98;;;;;;;;;;4999258;28;20374;-46
2023/08/06 03:49:06;;;;;;;1.50;1.40;;;;;;;;;;4998583;28;20489;-46
2023/08/06 03:51:31;;;;;;;1.13;1.00;;;;;;;;;;4995820;28;20404;-47
2023/08/06 03:53:57;;;;;;;1.13;0.82;;;;;;;;;;4997242;28;20100;-47
2023/08/06 03:56:22;;;;;;;1.40;0.60;;;;;;;;;;4999246;28;20033;-46
2023/08/06 03:58:47;;;;;;;2.15;0.80;;;;;;;;;;4996284;28;20133;-47
2023/08/06 04:01:13;;;;;;;0.95;0.70;;;;;;;;;;4996719;28;20109;-49
2023/08/06 04:03:38;;;;;;;1.52;1.00;;;;;;;;;;4998725;28;20045;-49
2023/08/06 04:06:04;;;;;;;1.73;0.77;;;;;;;;;;4996901;28;20022;-46
2023/08/06 04:08:29;;;;;;;2.03;0.80;;;;;;;;;;4998934;28;20034;-47
2023/08/06 04:10:55;;;;;;;1.50;1.23;;;;;;;;;;4992836;28;20026;-46
2023/08/06 04:13:20;;;;;;;0.90;0.90;;;;;;;;;;5010161;28;20047;-47
2023/08/06 04:15:47;;;;;;;1.35;0.88;;;;;;;;;;4998319;28;20081;-46
2023/08/06 04:18:12;;;;;;;1.40;1.10;;;;;;;;;;4998026;28;20117;-47
2023/08/06 04:20:49;;;;;;;1.10;0.90;;;;;;;;;;4997481;28;20050;-45
2023/08/06 04:23:14;;;;;;;3.63;1.00;;;;;;;;;;4977371;28;20066;-46
2023/08/06 04:25:40;;;;;;;1.13;1.02;;;;;;;;;;4981232;28;20685;-49
2023/08/06 04:28:05;;;;;;;2.58;1.08;;;;;;;;;;4998107;28;20047;-47
2023/08/06 04:30:30;;;;;;;1.58;1.20;;;;;;;;;;4990627;28;20037;-47
2023/08/06 04:32:59;;;;;;;1.30;1.20;;;;;;;;;;4989281;28;20047;-47
2023/08/06 04:35:25;;;;;;;1.60;1.00;;;;;;;;;;4983126;28;20047;-47
2023/08/06 04:37:50;;;;;;;1.02;1.00;;;;;;;;;;4997347;28;20041;-49
2023/08/06 04:40:16;;;;;;;1.30;1.20;;;;;;;;;;4998472;28;20476;-47
2023/08/06 04:42:41;;;;;;;1.30;1.20;;;;;;;;;;4995886;28;20042;-50
2023/08/06 04:45:07;;;;;;;1.25;0.93;;;;;;;;;;4997749;28;20468;-47
2023/08/06 04:47:33;;;;;;;3.25;1.30;;;;;;;;;;4998418;28;20038;-46
2023/08/06 04:49:58;;;;;;;2.28;1.25;;;;;;;;;;4979922;28;20120;-48
2023/08/06 04:52:27;;;;;;;6.10;2.00;;;;;;;;;;4995161;28;20040;-50
2023/08/06 04:54:53;;;;;;;4.30;2.03;;;;;;;;;;4997707;28;20018;-46
2023/08/06 04:57:18;;;;;;;5.05;1.92;;;;;;;;;;4997808;28;20023;-46
2023/08/06 04:59:43;;;;;;;2.33;1.55;;;;;;;;;;4996527;28;20026;-45
2023/08/06 05:02:09;;;;;;;1.95;1.17;;;;;;;;;;4984355;28;20019;-48
2023/08/06 05:04:34;;;;;;;2.67;1.13;;;;;;;;;;4995887;28;20038;-47
2023/08/06 05:07:00;;;;;;;2.00;1.00;;;;;;;;;;4996552;28;20809;-48
2023/08/06 05:09:25;;;;;;;1.10;1.00;;;;;;;;;;4996354;28;20042;-50
2023/08/06 05:11:51;;;;;;;1.52;1.25;;;;;;;;;;4980435;28;20038;-45
2023/08/06 05:14:16;;;;;;;1.52;0.98;;;;;;;;;;5004403;28;20038;-48
2023/08/06 05:16:42;;;;;;;1.55;1.00;;;;;;;;;;4997338;28;20026;-46
2023/08/06 05:19:07;;;;;;;1.52;1.00;;;;;;;;;;4989560;28;20095;-45
2023/08/06 05:21:32;;;;;;;2.97;1.10;;;;;;;;;;4991410;28;20061;-50
2023/08/06 05:23:58;;;;;;;2.13;1.20;;;;;;;;;;4962329;28;20623;-48
2023/08/06 05:26:23;;;;;;;2.08;0.85;;;;;;;;;;4995693;28;20022;-46
2023/08/06 05:28:48;;;;;;;2.05;1.23;;;;;;;;;;4994459;28;20070;-45
2023/08/06 05:31:14;;;;;;;1.17;1.08;;;;;;;;;;4991012;28;20026;-45
2023/08/06 05:33:39;;;;;;;1.40;0.95;;;;;;;;;;4997494;28;20046;-47
2023/08/06 05:36:05;;;;;;;1.50;0.90;;;;;;;;;;4995023;28;20049;-46
2023/08/06 05:38:30;;;;;;;1.08;0.90;;;;;;;;;;5001474;28;20062;-46
2023/08/06 05:40:56;;;;;;;1.77;1.15;;;;;;;;;;5008677;28;20045;-48
2023/08/06 05:43:22;;;;;;;4.22;0.80;;;;;;;;;;4989945;28;20030;-48
2023/08/06 05:45:49;;;;;;;1.88;1.33;;;;;;;;;;4978610;28;20057;-47
2023/08/06 05:48:15;;;;;;;1.45;1.17;;;;;;;;;;4995673;28;20057;-51
2023/08/06 05:50:40;;;;;;;2.15;0.90;;;;;;;;;;4996267;28;20480;-46
2023/08/06 05:53:06;;;;;;;1.98;0.98;;;;;;;;;;4995388;28;20054;-47
2023/08/06 05:55:32;;;;;;;4.90;1.27;;;;;;;;;;4984255;28;20041;-45
2023/08/06 05:57:58;;;;;;;2.28;0.90;;;;;;;;;;4996834;28;20058;-47
2023/08/06 06:00:23;;;;;;;1.42;0.90;;;;;;;;;;4995681;28;20061;-47
2023/08/06 06:02:49;;;;;;;7.90;1.42;;;;;;;;;;4983451;28;20047;-48
2023/08/06 06:05:14;;;;;;;4.28;1.17;;;;;;;;;;4994746;28;20030;-50
2023/08/06 06:07:39;;;;;;;3.67;1.45;;;;;;;;;;4996323;28;20038;-47
2023/08/06 06:10:06;;;;;;;6.05;1.50;;;;;;;;;;4987460;28;20089;-49
2023/08/06 06:12:31;;;;;;;5.65;1.17;;;;;;;;;;4992926;28;20089;-46
2023/08/06 06:14:56;;;;;;;2.95;1.20;;;;;;;;;;4996651;28;20459;-46
2023/08/06 06:17:22;;;;;;;3.35;1.38;;;;;;;;;;4997042;28;20042;-48
2023/08/06 06:19:47;;;;;;;6.40;0.98;;;;;;;;;;4992898;28;20023;-45
2023/08/06 06:22:13;;;;;;;2.85;1.20;;;;;;;;;;4995189;28;20034;-48
2023/08/06 06:24:39;;;;;;;4.20;1.67;;;;;;;;;;4995664;28;20030;-47
2023/08/06 06:27:04;;;;;;;9.30;1.10;;;;;;;;;;4991819;28;20022;-49
2023/08/06 06:29:30;;;;;;;2.78;1.45;;;;;;;;;;5001618;28;20019;-46
2023/08/06 06:31:55;;;;;;;3.25;1.48;;;;;;;;;;5009948;28;20424;-49
2023/08/06 06:34:21;;;;;;;1.95;1.48;;;;;;;;;;4994789;28;20050;-50
2023/08/06 06:36:47;;;;;;;1.05;0.93;;;;;;;;;;4987324;28;20047;-47
2023/08/06 06:39:12;;;;;;;5.25;1.20;;;;;;;;;;4980539;28;20038;-49
2023/08/06 06:41:38;;;;;;;2.35;1.10;;;;;;;;;;4991261;28;20488;-47
2023/08/06 06:44:04;;;;;;;3.05;1.35;;;;;;;;;;4994758;28;20038;-47
2023/08/06 06:46:29;;;;;;;3.80;1.55;;;;;;;;;;4994764;28;20033;-48
2023/08/06 06:48:54;;;;;;;1.77;1.08;;;;;;;;;;4970738;28;20070;-49
2023/08/06 06:51:20;;;;;;;7.75;1.80;;;;;;;;;;4995326;28;20034;-48
2023/08/06 06:53:45;;;;;;;3.70;1.40;;;;;;;;;;4998251;28;20528;-50
2023/08/06 06:56:11;;;;;;;3.50;1.10;;;;;;;;;;4998386;28;20066;-48
2023/08/06 06:58:38;;;;;;;4.32;1.48;;;;;;;;;;4986619;28;20066;-48
2023/08/06 07:01:04;;;;;;;7.97;1.73;;;;;;;;;;4999573;28;20026;-48
2023/08/06 07:03:29;;;;;;;3.28;1.55;;;;;;;;;;4998719;28;20046;-46
2023/08/06 07:05:58;;;;;;;4.65;1.83;;;;;;;;;;4988449;28;20031;-48
2023/08/06 07:08:24;;;;;;;4.55;1.48;;;;;;;;;;4980665;28;20046;-47
2023/08/06 07:10:49;;;;;;;3.20;1.63;;;;;;;;;;4998667;28;20034;-46
2023/08/06 07:13:16;;;;;;;4.47;1.67;;;;;;;;;;5000495;28;20045;-48
2023/08/06 07:15:41;;;;;;;2.75;1.25;;;;;;;;;;4993433;28;20089;-51
2023/08/06 07:18:07;;;;;;;3.75;1.70;;;;;;;;;;4997195;28;20575;-51
2023/08/06 07:20:34;;;;;;;4.05;1.63;;;;;;;;;;4990883;28;20029;-48
2023/08/06 07:22:59;;;;;;;5.35;2.13;;;;;;;;;;4998139;28;20042;-49
2023/08/06 07:25:25;;;;;;;4.07;1.40;;;;;;;;;;4999669;28;20499;-48
2023/08/06 07:27:50;;;;;;;4.28;1.33;;;;;;;;;;4998766;28;20049;-48
2023/08/06 07:30:16;;;;;;;4.47;1.45;;;;;;;;;;4997837;28;20030;-49
2023/08/06 07:32:42;;;;;;;8.35;1.90;;;;;;;;;;4998423;28;20045;-48
2023/08/06 07:35:12;;;;;;;6.18;1.48;;;;;;;;;;4991826;28;20031;-46
2023/08/06 07:37:38;;;;;;;3.88;1.50;;;;;;;;;;4995086;28;20038;-46
2023/08/06 07:40:04;;;;;;;4.10;1.60;;;;;;;;;;4990343;28;20018;-45
2023/08/06 07:42:29;;;;;;;3.83;1.52;;;;;;;;;;4992520;28;20436;-45
2023/08/06 07:44:57;;;;;;;3.55;1.60;;;;;;;;;;4998809;28;20022;-47
2023/08/06 07:47:23;;;;;;;5.97;1.65;;;;;;;;;;4997973;28;20399;-49
2023/08/06 07:49:48;;;;;;;4.85;1.65;;;;;;;;;;4996591;28;20027;-46
2023/08/06 07:52:14;;;;;;;8.15;1.80;;;;;;;;;;4985665;28;20038;-48
2023/08/06 07:54:39;;;;;;;5.13;1.90;;;;;;;;;;5004036;28;20027;-49
2023/08/06 07:57:05;;;;;;;6.13;1.23;;;;;;;;;;4992305;28;20018;-46
2023/08/06 07:59:30;;;;;;;8.73;1.85;;;;;;;;;;4999394;28;20475;-47
2023/08/06 08:01:56;;;;;;;3.00;1.27;;;;;;;;;;4996111;28;20041;-47
2023/08/06 08:04:21;;;;;;;5.32;1.60;;;;;;;;;;4996400;28;20038;-45
2023/08/06 08:06:47;;;;;;;5.85;1.70;;;;;;;;;;4999780;28;20065;-45
2023/08/06 08:09:13;;;;;;;9.80;2.67;;;;;;;;;;4998840;28;20640;-48
2023/08/06 08:11:39;;;;;;;5.43;1.52;;;;;;;;;;4996977;28;20026;-48
2023/08/06 08:14:05;;;;;;;5.70;1.85;;;;;;;;;;4997302;28;20062;-47
2023/08/06 08:16:30;;;;;;;5.40;2.00;;;;;;;;;;4996341;28;20447;-47
2023/08/06 08:18:56;;;;;;;6.18;1.77;;;;;;;;;;4995364;28;20043;-49
2023/08/06 08:21:23;;;;;;;3.85;1.67;;;;;;;;;;4989876;28;20045;-48
2023/08/06 08:23:49;;;;;;;4.55;1.52;;;;;;;;;;4981231;28;20038;-47
2023/08/06 08:26:14;;;;;;;4.30;2.00;;;;;;;;;;4998656;28;20058;-47
2023/08/06 08:28:40;;;;;;;3.33;1.70;;;;;;;;;;4996310;28;20038;-49
2023/08/06 08:31:08;;;;;;;3.55;1.50;;;;;;;;;;4989993;28;20034;-50
2023/08/06 08:33:34;;;;;;;3.53;1.40;;;;;;;;;;4990778;28;20050;-49
2023/08/06 08:36:00;;;;;;;5.20;1.60;;;;;;;;;;4979263;28;20039;-47
2023/08/06 08:38:25;;;;;;;10.27;2.03;;;;;;;;;;4992951;28;20668;-48
2023/08/06 08:40:53;;;;;;;11.35;1.90;;;;;;;;;;4999082;28;20030;-48
2023/08/06 08:43:21;;;;;;;2.88;1.35;;;;;;;;;;4996121;28;20038;-50
2023/08/06 08:45:50;;;;;;;3.42;1.95;;;;;;;;;;4991001;28;20040;-46
2023/08/06 08:48:16;;;;;;;9.48;1.50;;;;;;;;;;4991022;28;20039;-47
2023/08/06 08:50:44;;;;;;;6.15;1.65;;;;;;;;;;4986007;28;20023;-48
2023/08/06 08:53:11;;;;;;;9.55;1.77;;;;;;;;;;4980014;28;20069;-51
2023/08/06 08:55:38;;;;;;;4.30;1.20;;;;;;;;;;4995722;28;20543;-46
2023/08/06 08:58:03;;;;;;;4.90;1.80;;;;;;;;;;4995961;28;20041;-47
2023/08/06 09:00:29;;;;;;;4.32;1.60;;;;;;;;;;4996837;28;20034;-51
2023/08/06 09:02:55;;;;;;;4.22;1.83;;;;;;;;;;4995748;28;20112;-48
2023/08/06 09:05:23;;;;;;;6.72;2.00;;;;;;;;;;4990744;28;20053;-48
2023/08/06 09:07:49;;;;;;;3.42;1.55;;;;;;;;;;4996354;28;20042;-48
2023/08/06 09:10:20;;;;;;;4.35;1.77;;;;;;;;;;4990794;28;20033;-48
2023/08/06 09:12:48;;;;;;;7.32;2.08;;;;;;;;;;4994080;28;20049;-49
2023/08/06 09:15:14;;;;;;;5.90;1.60;;;;;;;;;;4993258;28;20034;-47
2023/08/06 09:17:39;;;;;;;6.18;1.88;;;;;;;;;;4987439;28;20093;-47
2023/08/06 09:20:14;;;;;;;8.88;1.40;;;;;;;;;;4983964;28;20030;-48
2023/08/06 09:22:41;;;;;;;4.15;1.38;;;;;;;;;;4996215;28;20058;-48
2023/08/06 09:25:09;;;;;;;5.20;1.50;;;;;;;;;;4997745;28;20029;-48
2023/08/06 09:27:38;;;;;;;8.48;1.83;;;;;;;;;;4994763;28;20054;-47
2023/08/06 09:30:06;;;;;;;5.38;1.70;;;;;;;;;;4989147;28;20038;-49
2023/08/06 09:32:50;;;;;;;9.38;2.00;;;;;;;;;;4980023;28;20045;-49
2023/08/06 09:35:17;;;;;;;7.10;2.15;;;;;;;;;;4994877;28;20061;-48
2023/08/06 09:37:42;;;;;;;4.65;1.30;;;;;;;;;;4996556;28;20108;-47
2023/08/06 09:40:28;;;;;;;4.00;1.65;;;;;;;;;;4993901;28;20061;-45
2023/08/06 09:42:54;;;;;;;8.48;2.08;;;;;;;;;;4995701;28;20373;-48
2023/08/06 09:45:21;;;;;;;4.95;1.70;;;;;;;;;;4997318;28;20068;-47
2023/08/06 09:47:50;;;;;;;6.35;1.98;;;;;;;;;;4995532;28;20393;-46
2023/08/06 09:50:20;;;;;;;4.85;1.40;;;;;;;;;;4994545;28;20030;-45
2023/08/06 09:52:47;;;;;;;5.10;1.27;;;;;;;;;;4995185;28;20236;-47
2023/08/06 09:55:13;;;;;;;8.52;1.88;;;;;;;;;;4995160;28;20026;-46
2023/08/06 09:57:42;;;;;;;3.13;1.52;;;;;;;;;;4994892;28;20092;-48
2023/08/06 10:00:10;;;;;;;5.60;1.63;;;;;;;;;;4996128;28;20105;-48
2023/08/06 10:02:41;;;;;;;4.75;1.45;;;;;;;;;;4996827;28;20038;-48
2023/08/06 10:05:10;;;;;;;3.72;1.38;;;;;;;;;;4991326;28;20037;-48
2023/08/06 10:07:36;;;;;;;5.00;1.38;;;;;;;;;;4981775;28;20045;-46
2023/08/06 10:10:02;;;;;;;5.25;1.48;;;;;;;;;;4986394;28;20038;-51
2023/08/06 10:12:38;;;;;;;8.25;1.85;;;;;;;;;;4993872;28;20396;-50
2023/08/06 10:15:08;;;;;;;5.57;1.42;;;;;;;;;;4993094;28;20022;-47
2023/08/06 10:17:36;;;;;;;5.75;1.85;;;;;;;;;;4995476;28;20037;-48
2023/08/06 10:20:03;;;;;;;6.13;1.83;;;;;;;;;;4994031;28;20378;-47
2023/08/06 10:22:28;;;;;;;10.60;1.65;;;;;;;;;;4994232;28;20042;-51
2023/08/06 10:24:55;;;;;;;6.65;1.48;;;;;;;;;;4976455;28;20046;-50
2023/08/06 10:27:22;;;;;;;7.85;1.45;;;;;;;;;;4987442;28;20030;-49
2023/08/06 10:29:49;;;;;;;2.42;1.33;;;;;;;;;;5004159;28;20062;-48
2023/08/06 10:32:15;;;;;;;7.80;1.95;;;;;;;;;;4995343;28;20047;-49
2023/08/06 10:34:57;;;;;;;3.30;0.93;;;;;;;;;;4984490;28;20105;-47
2023/08/06 10:37:34;;;;;;;8.82;1.45;;;;;;;;;;4989159;28;20512;-47
2023/08/06 10:39:59;;;;;;;3.95;1.25;;;;;;;;;;4986826;28;20034;-50
2023/08/06 10:42:28;;;;;;;1.80;0.82;;;;;;;;;;4993962;28;20042;-51
2023/08/06 10:45:15;;;;;;;3.58;0.93;;;;;;;;;;4996359;28;20026;-51
2023/08/06 10:47:40;;;;;;;2.72;0.73;;;;;;;;;;4989732;28;20038;-48
2023/08/06 10:50:08;;;;;;;3.85;1.00;;;;;;;;;;4994042;28;20436;-48
2023/08/06 10:52:34;;;;;;;1.92;0.80;;;;;;;;;;4995892;28;20041;-46
2023/08/06 10:54:59;;;;;;;1.30;0.80;;;;;;;;;;4989485;28;20035;-48
2023/08/06 10:57:25;;;;;;;3.80;1.10;;;;;;;;;;4981145;28;20045;-47
2023/08/06 10:59:51;;;;;;;2.78;0.85;;;;;;;;;;4987911;28;20531;-50
2023/08/06 11:02:16;;;;;;;1.25;0.60;;;;;;;;;;4983057;28;20034;-47
2023/08/06 11:04:42;;;;;;;4.38;1.13;;;;;;;;;;4983590;28;20030;-47
2023/08/06 11:07:07;;;;;;;4.45;0.73;;;;;;;;;;4995115;28;20063;-53
2023/08/06 11:09:33;;;;;;;0.73;0.45;;;;;;;;;;4994393;28;20030;-46
2023/08/06 11:11:58;;;;;;;5.50;0.93;;;;;;;;;;4975375;28;20917;-46
2023/08/06 11:14:24;;;;;;;2.33;0.57;;;;;;;;;;4994658;28;20050;-49
2023/08/06 11:16:50;;;;;;;2.50;0.60;;;;;;;;;;4993787;28;20026;-48
2023/08/06 11:19:16;;;;;;;4.72;0.75;;;;;;;;;;4995998;28;20042;-49
2023/08/06 11:21:43;;;;;;;3.33;0.50;;;;;;;;;;4993586;28;20019;-46
2023/08/06 11:24:10;;;;;;;2.10;0.70;;;;;;;;;;4995590;28;20054;-46
2023/08/06 11:26:36;;;;;;;1.33;0.60;;;;;;;;;;4994239;28;20049;-47
2023/08/06 11:29:03;;;;;;;1.33;0.70;;;;;;;;;;4992732;28;20046;-49
2023/08/06 11:31:28;;;;;;;0.90;0.40;;;;;;;;;;4993502;28;20500;-49
2023/08/06 11:33:54;;;;;;;3.35;0.50;;;;;;;;;;4993985;28;20479;-51
2023/08/06 11:36:33;;;;;;;2.03;0.73;;;;;;;;;;4995741;28;20042;-49
2023/08/06 11:39:02;;;;;;;0.75;0.50;;;;;;;;;;4996318;28;20042;-50
2023/08/06 11:41:32;;;;;;;0.60;0.60;;;;;;;;;;4997388;28;20026;-47
2023/08/06 11:43:59;;;;;;;4.13;0.57;;;;;;;;;;4998515;28;20124;-46
2023/08/06 11:46:25;;;;;;;1.65;0.77;;;;;;;;;;4997745;28;20026;-48
2023/08/06 11:48:54;;;;;;;1.80;0.63;;;;;;;;;;4997808;28;20531;-47
2023/08/06 11:51:23;;;;;;;0.40;0.40;;;;;;;;;;4999570;28;20033;-46
2023/08/06 11:53:50;;;;;;;2.08;0.57;;;;;;;;;;4996297;28;20054;-49
2023/08/06 11:56:16;;;;;;;1.48;0.45;;;;;;;;;;4999334;28;20061;-53
2023/08/06 11:58:42;;;;;;;1.13;0.80;;;;;;;;;;4996340;28;20053;-48
2023/08/06 12:01:07;;;;;;;4.15;0.85;;;;;;;;;;4999495;28;20030;-49
2023/08/06 12:03:39;;;;;;;3.28;0.75;;;;;;;;;;4997047;28;20057;-49
2023/08/06 12:06:04;;;;;;;4.03;0.45;;;;;;;;;;4999309;28;20496;-48
2023/08/06 12:08:30;;;;;;;3.70;0.68;;;;;;;;;;4993433;28;20058;-47
2023/08/06 12:10:55;;;;;;;2.08;0.57;;;;;;;;;;4996686;28;20030;-47
2023/08/06 12:13:20;;;;;;;4.10;0.80;;;;;;;;;;4997523;28;20066;-51
2023/08/06 12:15:46;;;;;;;1.05;0.40;;;;;;;;;;4997868;28;20052;-48
2023/08/06 12:18:11;;;;;;;1.13;0.65;;;;;;;;;;4979192;28;20548;-48
2023/08/06 12:20:38;;;;;;;1.90;0.57;;;;;;;;;;4980257;28;20488;-47
2023/08/06 12:23:04;;;;;;;1.42;0.57;;;;;;;;;;4995988;28;20038;-45
2023/08/06 12:25:29;;;;;;;2.42;0.52;;;;;;;;;;4996751;28;20029;-48
2023/08/06 12:27:55;;;;;;;0.32;0.32;;;;;;;;;;4998722;28;20050;-49
2023/08/06 12:30:20;;;;;;;2.47;0.50;;;;;;;;;;4998733;28;20104;-47
2023/08/06 12:32:46;;;;;;;2.15;0.63;;;;;;;;;;4996642;28;20050;-47
2023/08/06 12:35:11;;;;;;;2.83;0.90;;;;;;;;;;4998287;28;20046;-49
2023/08/06 12:37:38;;;;;;;0.93;0.65;;;;;;;;;;4987322;28;20046;-47
2023/08/06 12:40:04;;;;;;;2.22;0.90;;;;;;;;;;4997151;28;20042;-45
2023/08/06 12:42:30;;;;;;;1.23;0.63;;;;;;;;;;4997192;28;20039;-48
2023/08/06 12:44:55;;;;;;;3.63;0.80;;;;;;;;;;4996042;28;20026;-49
2023/08/06 12:47:21;;;;;;;1.35;0.70;;;;;;;;;;4996732;28;20125;-47
2023/08/06 12:49:46;;;;;;;2.00;0.60;;;;;;;;;;4993292;28;20074;-47
2023/08/06 12:52:14;;;;;;;1.85;0.70;;;;;;;;;;4988918;28;20027;-50
2023/08/06 12:54:40;;;;;;;1.85;0.60;;;;;;;;;;4997037;28;20038;-47
2023/08/06 12:57:06;;;;;;;3.58;0.80;;;;;;;;;;4995611;28;20033;-47
2023/08/06 12:59:33;;;;;;;1.83;0.70;;;;;;;;;;4989179;28;20634;-49
2023/08/06 13:01:58;;;;;;;1.48;0.82;;;;;;;;;;4990670;28;20031;-50
2023/08/06 13:04:24;;;;;;;0.52;0.47;;;;;;;;;;4988286;28;20041;-49
2023/08/06 13:06:49;;;;;;;1.85;0.65;;;;;;;;;;4980270;28;20037;-45
2023/08/06 13:09:15;;;;;;;2.53;0.70;;;;;;;;;;4997490;28;20038;-45
2023/08/06 13:11:42;;;;;;;2.63;0.88;;;;;;;;;;4998637;28;20384;-47
2023/08/06 13:14:10;;;;;;;1.58;0.77;;;;;;;;;;4994972;28;20060;-44
2023/08/06 13:16:37;;;;;;;1.65;0.93;;;;;;;;;;4998035;28;20054;-46
2023/08/06 13:19:03;;;;;;;2.17;1.10;;;;;;;;;;4995543;28;20046;-45
2023/08/06 13:22:00;;;;;;;2.38;0.80;;;;;;;;;;4993166;28;20033;-48
2023/08/06 13:24:25;;;;;;;4.40;1.17;;;;;;;;;;4993413;28;20047;-47
2023/08/06 13:26:51;;;;;;;2.22;0.95;;;;;;;;;;4996361;28;20029;-50
2023/08/06 13:29:16;;;;;;;1.27;0.90;;;;;;;;;;5008834;28;20049;-45
2023/08/06 13:31:41;;;;;;;3.85;0.75;;;;;;;;;;4994335;28;20042;-47
2023/08/06 13:34:07;;;;;;;3.45;0.70;;;;;;;;;;4995224;28;20045;-48
2023/08/06 13:36:32;;;;;;;4.63;1.00;;;;;;;;;;4995162;28;20038;-47
2023/08/06 13:38:58;;;;;;;3.63;0.65;;;;;;;;;;4996921;28;20396;-46
2023/08/06 13:41:23;;;;;;;3.35;0.70;;;;;;;;;;4995804;28;20034;-47
2023/08/06 13:43:49;;;;;;;2.88;0.82;;;;;;;;;;4979704;28;20042;-45
2023/08/06 13:46:17;;;;;;;2.13;0.90;;;;;;;;;;4990674;28;20034;-45
2023/08/06 13:48:43;;;;;;;3.58;0.80;;;;;;;;;;4996905;28;20062;-48
2023/08/06 13:51:11;;;;;;;3.70;0.82;;;;;;;;;;4992618;28;20038;-47
2023/08/06 13:53:36;;;;;;;1.25;0.82;;;;;;;;;;4993506;28;20093;-49
2023/08/06 13:56:02;;;;;;;2.10;0.68;;;;;;;;;;4994856;28;20042;-50
2023/08/06 13:58:28;;;;;;;4.60;1.13;;;;;;;;;;4994776;28;20074;-47
2023/08/06 14:00:54;;;;;;;4.85;1.15;;;;;;;;;;4997167;28;20041;-50
2023/08/06 14:03:20;;;;;;;4.15;0.77;;;;;;;;;;4992733;28;20570;-49
2023/08/06 14:05:45;;;;;;;5.00;0.70;;;;;;;;;;4996617;28;20019;-47
2023/08/06 14:08:11;;;;;;;1.67;0.85;;;;;;;;;;4993709;28;20046;-49
2023/08/06 14:10:36;;;;;;;1.55;0.80;;;;;;;;;;4992472;28;20036;-48
2023/08/06 14:13:02;;;;;;;1.15;0.88;;;;;;;;;;4988917;28;20718;-48
2023/08/06 14:15:27;;;;;;;0.95;0.73;;;;;;;;;;4996887;28;20037;-47
2023/08/06 14:17:53;;;;;;;2.45;0.82;;;;;;;;;;4996060;28;20038;-47
2023/08/06 14:20:18;;;;;;;1.00;0.90;;;;;;;;;;4993544;28;20105;-48
2023/08/06 14:22:43;;;;;;;4.00;0.88;;;;;;;;;;4989933;28;20034;-46
2023/08/06 14:25:09;;;;;;;2.78;0.90;;;;;;;;;;4996641;28;20030;-46
2023/08/06 14:27:34;;;;;;;1.92;1.05;;;;;;;;;;4994831;28;20066;-45
2023/08/06 14:30:00;;;;;;;2.28;1.23;;;;;;;;;;4995480;28;20030;-48
2023/08/06 14:32:26;;;;;;;3.70;1.00;;;;;;;;;;4995575;28;20042;-47
2023/08/06 14:34:52;;;;;;;3.45;0.95;;;;;;;;;;4994491;28;20111;-46
2023/08/06 14:37:17;;;;;;;4.57;1.00;;;;;;;;;;4994596;28;20046;-48
2023/08/06 14:39:43;;;;;;;3.58;1.13;;;;;;;;;;4996102;28;20026;-47